KSAT/SAT METAR and TAF weather

Enter ICAO airport designator
Station Type Date Time Source
KSAT METAR 2019/05/25 09:58 UTC NOAA

KSAT 250958Z 13013KT 10SM OVC013 24/22 A2995 RMK AO2 T02440217


Station Type Date Time Source
KSAT Decoded METAR 2019/05/25 09:58 UTC NOAA

SAN ANTONIO INTERNATIONAL AIRPORT , TX, United States (KSAT) 29-32N 098-28W 243M
May 25, 2019 - 05:58 AM EDT / 2019.05.25 0958 UTC
Wind: from the SE (130 degrees) at 15 MPH (13 KT):0
Visibility: 10 mile(s):0
Sky conditions: overcast
Temperature: 75.9 F (24.4 C)
Dew Point: 71.1 F (21.7 C)
Relative Humidity: 84%
Pressure (altimeter): 29.95 in. Hg (1014 hPa)
ob: KSAT 250958Z 13013KT 10SM OVC013 24/22 A2995 RMK AO2 T02440217
cycle: 10

Station Type Date Time Source
KSAT TAF 2019/05/25 06:28 UTC NOAA

TAF KSAT 250525Z 2506/2612 14012KT P6SM VCSH BKN015
FM251500 15015KT P6SM VCSH BKN025
FM251800 14015G25KT P6SM SCT040
FM260300 14012KT P6SM SCT040
FM260600 14012KT P6SM BKN015

Example: see airport list